sensor_id;sensor_type;location;lat;lon;timestamp;pressure;altitude;pressure_sealevel;temperature
82778;BMP280;72510;45.128;20.734;2023-11-19T00:03:56;100990.25;;;1.31
82778;BMP280;72510;45.128;20.734;2023-11-19T00:13:56;101012.75;;;1.32
82778;BMP280;72510;45.128;20.734;2023-11-19T00:23:58;101020.22;;;1.23
82778;BMP280;72510;45.128;20.734;2023-11-19T00:33:59;101006.34;;;1.19
82778;BMP280;72510;45.128;20.734;2023-11-19T00:43:59;100999.19;;;1.08
82778;BMP280;72510;45.128;20.734;2023-11-19T00:54:00;101014.94;;;1.08
82778;BMP280;72510;45.128;20.734;2023-11-19T01:04:02;101004.38;;;0.90
82778;BMP280;72510;45.128;20.734;2023-11-19T01:14:02;100993.84;;;0.80
82778;BMP280;72510;45.128;20.734;2023-11-19T01:24:03;100980.34;;;0.67
82778;BMP280;72510;45.128;20.734;2023-11-19T01:34:04;100996.78;;;0.60
82778;BMP280;72510;45.128;20.734;2023-11-19T01:44:07;101005.38;;;0.61
82778;BMP280;72510;45.128;20.734;2023-11-19T01:54:08;101002.38;;;0.59
82778;BMP280;72510;45.128;20.734;2023-11-19T02:04:09;101004.69;;;0.71
82778;BMP280;72510;45.128;20.734;2023-11-19T02:14:11;100988.56;;;0.62
82778;BMP280;72510;45.128;20.734;2023-11-19T02:24:12;100991.53;;;0.60
82778;BMP280;72510;45.128;20.734;2023-11-19T02:34:14;101008.34;;;0.55
82778;BMP280;72510;45.128;20.734;2023-11-19T02:44:21;101007.25;;;0.56
82778;BMP280;72510;45.128;20.734;2023-11-19T02:54:22;101003.53;;;0.65
82778;BMP280;72510;45.128;20.734;2023-11-19T03:04:22;101003.56;;;0.68
82778;BMP280;72510;45.128;20.734;2023-11-19T03:14:26;100999.47;;;0.74
82778;BMP280;72510;45.128;20.734;2023-11-19T03:24:26;100998.38;;;0.90
82778;BMP280;72510;45.128;20.734;2023-11-19T03:34:27;100996.56;;;1.05
82778;BMP280;72510;45.128;20.734;2023-11-19T03:44:27;100992.13;;;1.20
82778;BMP280;72510;45.128;20.734;2023-11-19T03:54:28;101000.00;;;1.27
82778;BMP280;72510;45.128;20.734;2023-11-19T04:04:29;100968.16;;;1.32
82778;BMP280;72510;45.128;20.734;2023-11-19T04:14:29;100989.88;;;1.33
82778;BMP280;72510;45.128;20.734;2023-11-19T04:24:30;101001.13;;;1.40
82778;BMP280;72510;45.128;20.734;2023-11-19T04:34:30;100971.53;;;1.47
82778;BMP280;72510;45.128;20.734;2023-11-19T04:44:31;100954.25;;;1.49
82778;BMP280;72510;45.128;20.734;2023-11-19T04:54:31;100965.88;;;1.45
82778;BMP280;72510;45.128;20.734;2023-11-19T05:04:32;100953.13;;;1.40
82778;BMP280;72510;45.128;20.734;2023-11-19T05:14:32;100947.50;;;1.16
82778;BMP280;72510;45.128;20.734;2023-11-19T05:24:33;100936.63;;;0.96
82778;BMP280;72510;45.128;20.734;2023-11-19T05:34:33;100947.72;;;0.57
82778;BMP280;72510;45.128;20.734;2023-11-19T05:44:34;100935.28;;;0.36
82778;BMP280;72510;45.128;20.734;2023-11-19T05:54:34;100919.94;;;0.31
82778;BMP280;72510;45.128;20.734;2023-11-19T06:04:35;100922.97;;;0.51
82778;BMP280;72510;45.128;20.734;2023-11-19T06:14:35;100918.94;;;0.71
82778;BMP280;72510;45.128;20.734;2023-11-19T06:24:36;100932.47;;;0.81
82778;BMP280;72510;45.128;20.734;2023-11-19T06:34:39;100975.94;;;1.00
82778;BMP280;72510;45.128;20.734;2023-11-19T06:45:01;100977.88;;;1.39
82778;BMP280;72510;45.128;20.734;2023-11-19T06:55:02;100956.50;;;1.80
82778;BMP280;72510;45.128;20.734;2023-11-19T07:05:03;100969.19;;;2.14
82778;BMP280;72510;45.128;20.734;2023-11-19T07:15:04;100980.41;;;2.29
82778;BMP280;72510;45.128;20.734;2023-11-19T07:25:05;100967.06;;;2.75
82778;BMP280;72510;45.128;20.734;2023-11-19T07:35:08;100963.44;;;3.14
82778;BMP280;72510;45.128;20.734;2023-11-19T07:45:09;100972.94;;;3.50
82778;BMP280;72510;45.128;20.734;2023-11-19T07:55:12;100980.56;;;3.78
82778;BMP280;72510;45.128;20.734;2023-11-19T08:05:13;100968.81;;;4.21
82778;BMP280;72510;45.128;20.734;2023-11-19T08:15:14;100962.34;;;4.56
82778;BMP280;72510;45.128;20.734;2023-11-19T08:25:14;100955.47;;;4.90
82778;BMP280;72510;45.128;20.734;2023-11-19T08:35:15;100951.91;;;5.24
82778;BMP280;72510;45.128;20.734;2023-11-19T08:45:15;100939.38;;;5.51
82778;BMP280;72510;45.128;20.734;2023-11-19T08:55:16;100950.34;;;5.90
82778;BMP280;72510;45.128;20.734;2023-11-19T09:05:17;100947.50;;;6.37
82778;BMP280;72510;45.128;20.734;2023-11-19T09:15:17;100928.25;;;6.69
82778;BMP280;72510;45.128;20.734;2023-11-19T09:25:18;100926.31;;;7.03
82778;BMP280;72510;45.128;20.734;2023-11-19T09:35:18;100894.06;;;7.21
82778;BMP280;72510;45.128;20.734;2023-11-19T09:45:21;100883.50;;;7.33
82778;BMP280;72510;45.128;20.734;2023-11-19T09:55:21;100873.06;;;7.68
82778;BMP280;72510;45.128;20.734;2023-11-19T10:05:23;100868.91;;;8.19
82778;BMP280;72510;45.128;20.734;2023-11-19T10:15:24;100865.91;;;8.99
82778;BMP280;72510;45.128;20.734;2023-11-19T10:25:27;100830.31;;;8.97
82778;BMP280;72510;45.128;20.734;2023-11-19T10:35:28;100815.13;;;8.97
82778;BMP280;72510;45.128;20.734;2023-11-19T10:45:29;100776.50;;;9.14
82778;BMP280;72510;45.128;20.734;2023-11-19T10:55:31;100761.63;;;9.67
82778;BMP280;72510;45.128;20.734;2023-11-19T11:05:32;100791.22;;;9.87
82778;BMP280;72510;45.128;20.734;2023-11-19T11:15:34;100806.19;;;9.44
82778;BMP280;72510;45.128;20.734;2023-11-19T11:25:40;100787.69;;;9.00
82778;BMP280;72510;45.128;20.734;2023-11-19T11:36:19;100733.22;;;10.47
82778;BMP280;72510;45.128;20.734;2023-11-19T11:56:33;100730.03;;;9.87
82778;BMP280;72510;45.128;20.734;2023-11-19T12:06:35;100738.78;;;11.43
82778;BMP280;72510;45.128;20.734;2023-11-19T12:16:36;100723.19;;;10.42
82778;BMP280;72510;45.128;20.734;2023-11-19T12:26:38;100703.41;;;9.87
82778;BMP280;72510;45.128;20.734;2023-11-19T12:36:39;100684.53;;;9.76
82778;BMP280;72510;45.128;20.734;2023-11-19T12:46:39;100688.91;;;9.51
82778;BMP280;72510;45.128;20.734;2023-11-19T12:56:40;100671.19;;;9.48
82778;BMP280;72510;45.128;20.734;2023-11-19T13:06:48;100693.31;;;9.27
82778;BMP280;72510;45.128;20.734;2023-11-19T13:16:49;100666.22;;;9.01
82778;BMP280;72510;45.128;20.734;2023-11-19T13:26:49;100650.09;;;8.86
82778;BMP280;72510;45.128;20.734;2023-11-19T13:36:50;100649.09;;;8.61
82778;BMP280;72510;45.128;20.734;2023-11-19T13:46:51;100641.75;;;8.65
82778;BMP280;72510;45.128;20.734;2023-11-19T13:56:55;100630.63;;;8.58
82778;BMP280;72510;45.128;20.734;2023-11-19T14:06:55;100631.03;;;8.47
82778;BMP280;72510;45.128;20.734;2023-11-19T14:16:56;100608.72;;;8.35
82778;BMP280;72510;45.128;20.734;2023-11-19T14:26:56;100622.00;;;8.44
82778;BMP280;72510;45.128;20.734;2023-11-19T14:36:57;100598.28;;;8.72
82778;BMP280;72510;45.128;20.734;2023-11-19T14:46:57;100586.38;;;9.13
82778;BMP280;72510;45.128;20.734;2023-11-19T14:56:57;100578.88;;;8.00
82778;BMP280;72510;45.128;20.734;2023-11-19T15:07:00;100597.06;;;7.06
82778;BMP280;72510;45.128;20.734;2023-11-19T15:17:01;100593.44;;;6.48
82778;BMP280;72510;45.128;20.734;2023-11-19T15:27:01;100602.97;;;6.04
82778;BMP280;72510;45.128;20.734;2023-11-19T15:37:02;100596.84;;;5.78
82778;BMP280;72510;45.128;20.734;2023-11-19T15:47:02;100594.44;;;5.67
82778;BMP280;72510;45.128;20.734;2023-11-19T15:57:03;100588.53;;;5.63
82778;BMP280;72510;45.128;20.734;2023-11-19T16:07:04;100567.97;;;5.54
82778;BMP280;72510;45.128;20.734;2023-11-19T16:17:05;100561.41;;;5.75
82778;BMP280;72510;45.128;20.734;2023-11-19T16:27:05;100557.72;;;5.85
82778;BMP280;72510;45.128;20.734;2023-11-19T16:37:06;100547.34;;;5.94
82778;BMP280;72510;45.128;20.734;2023-11-19T16:47:09;100558.34;;;6.06
82778;BMP280;72510;45.128;20.734;2023-11-19T16:57:09;100549.88;;;6.11
82778;BMP280;72510;45.128;20.734;2023-11-19T17:07:10;100554.72;;;6.00
82778;BMP280;72510;45.128;20.734;2023-11-19T17:17:10;100545.78;;;6.10
82778;BMP280;72510;45.128;20.734;2023-11-19T17:27:11;100540.59;;;6.06
82778;BMP280;72510;45.128;20.734;2023-11-19T17:37:11;100525.06;;;6.08
82778;BMP280;72510;45.128;20.734;2023-11-19T17:47:12;100517.13;;;6.21
82778;BMP280;72510;45.128;20.734;2023-11-19T17:57:13;100501.59;;;6.23
82778;BMP280;72510;45.128;20.734;2023-11-19T18:07:15;100494.50;;;6.20
82778;BMP280;72510;45.128;20.734;2023-11-19T18:17:16;100495.03;;;6.15
82778;BMP280;72510;45.128;20.734;2023-11-19T18:27:16;100497.56;;;6.19
82778;BMP280;72510;45.128;20.734;2023-11-19T18:37:17;100451.13;;;6.05
82778;BMP280;72510;45.128;20.734;2023-11-19T18:47:20;100430.47;;;5.87
82778;BMP280;72510;45.128;20.734;2023-11-19T18:57:20;100412.59;;;5.78
82778;BMP280;72510;45.128;20.734;2023-11-19T19:07:21;100408.22;;;5.59
82778;BMP280;72510;45.128;20.734;2023-11-19T19:17:24;100392.63;;;5.35
82778;BMP280;72510;45.128;20.734;2023-11-19T19:27:25;100405.44;;;5.20
82778;BMP280;72510;45.128;20.734;2023-11-19T19:37:26;100403.09;;;5.09
82778;BMP280;72510;45.128;20.734;2023-11-19T19:47:26;100426.16;;;5.22
82778;BMP280;72510;45.128;20.734;2023-11-19T19:57:27;100439.59;;;5.56
82778;BMP280;72510;45.128;20.734;2023-11-19T20:07:27;100459.19;;;5.72
82778;BMP280;72510;45.128;20.734;2023-11-19T20:17:28;100432.91;;;5.52
82778;BMP280;72510;45.128;20.734;2023-11-19T20:27:28;100402.16;;;5.16
82778;BMP280;72510;45.128;20.734;2023-11-19T20:37:29;100410.53;;;4.82
82778;BMP280;72510;45.128;20.734;2023-11-19T20:47:32;100404.69;;;4.57
82778;BMP280;72510;45.128;20.734;2023-11-19T20:57:32;100399.56;;;4.50
82778;BMP280;72510;45.128;20.734;2023-11-19T21:07:33;100390.00;;;4.40
82778;BMP280;72510;45.128;20.734;2023-11-19T21:17:34;100390.41;;;4.38
82778;BMP280;72510;45.128;20.734;2023-11-19T21:27:34;100388.69;;;4.65
82778;BMP280;72510;45.128;20.734;2023-11-19T21:37:35;100397.41;;;4.62
82778;BMP280;72510;45.128;20.734;2023-11-19T21:47:35;100407.56;;;4.63
82778;BMP280;72510;45.128;20.734;2023-11-19T21:57:36;100406.81;;;4.46
82778;BMP280;72510;45.128;20.734;2023-11-19T22:07:37;100403.25;;;4.20
82778;BMP280;72510;45.128;20.734;2023-11-19T22:17:37;100415.81;;;4.12
82778;BMP280;72510;45.128;20.734;2023-11-19T22:27:38;100412.16;;;4.06
82778;BMP280;72510;45.128;20.734;2023-11-19T22:37:38;100401.47;;;3.97
82778;BMP280;72510;45.128;20.734;2023-11-19T22:47:39;100412.41;;;3.95
82778;BMP280;72510;45.128;20.734;2023-11-19T22:57:42;100415.38;;;3.97
82778;BMP280;72510;45.128;20.734;2023-11-19T23:07:42;100409.13;;;4.08
82778;BMP280;72510;45.128;20.734;2023-11-19T23:17:44;100404.09;;;4.50
82778;BMP280;72510;45.128;20.734;2023-11-19T23:27:44;100410.38;;;4.89
82778;BMP280;72510;45.128;20.734;2023-11-19T23:37:45;100409.47;;;5.25
82778;BMP280;72510;45.128;20.734;2023-11-19T23:47:45;100389.28;;;5.47
82778;BMP280;72510;45.128;20.734;2023-11-19T23:57:46;100407.91;;;5.56
